Time;durP1;ratioP1;P1;durP2;ratioP2;P2;SDS_P1;SDS_P2;PMS_P1;PMS_P2;Temp;Humidity;BMP_temperature;BMP_pressure;BME280_temperature;BME280_humidity;BME280_pressure;Samples;Min_cycle;Max_cycle;Signal;HPM_P1;HPM_P2
2022/08/02 00:00:14;;;;;;;14.20;3.55;;;13.80;99.90;;;;;;4934808;28;20117;-87
2022/08/02 00:02:40;;;;;;;9.70;2.85;;;13.80;99.90;;;;;;4966501;28;20046;-87
2022/08/02 00:05:07;;;;;;;8.05;2.85;;;13.70;99.90;;;;;;4966454;28;20097;-86
2022/08/02 00:07:34;;;;;;;10.32;3.15;;;13.70;99.90;;;;;;4964910;28;20038;-87
2022/08/02 00:10:00;;;;;;;9.45;2.83;;;13.70;99.90;;;;;;4949167;28;20043;-86
2022/08/02 00:12:26;;;;;;;11.10;3.25;;;13.70;99.90;;;;;;4931628;28;20045;-87
2022/08/02 00:14:52;;;;;;;10.65;3.10;;;13.70;99.90;;;;;;4982345;28;20415;-87
2022/08/02 00:17:18;;;;;;;9.82;3.38;;;13.70;99.90;;;;;;4965659;28;20121;-87
2022/08/02 00:19:44;;;;;;;10.77;3.70;;;13.70;99.90;;;;;;4951151;28;20129;-87
2022/08/02 00:22:10;;;;;;;8.70;3.28;;;13.70;99.90;;;;;;4948509;28;20122;-86
2022/08/02 00:24:36;;;;;;;10.75;3.42;;;13.70;99.90;;;;;;4946588;28;20136;-87
2022/08/02 00:27:02;;;;;;;11.50;3.60;;;13.70;99.90;;;;;;4948910;28;20051;-87
2022/08/02 00:29:29;;;;;;;15.88;3.90;;;13.70;99.90;;;;;;4948842;28;20047;-87
2022/08/02 00:31:56;;;;;;;9.65;3.53;;;13.70;99.90;;;;;;4948854;28;20046;-87
2022/08/02 00:34:22;;;;;;;11.02;3.50;;;13.70;99.90;;;;;;4965256;28;20038;-86
2022/08/02 00:36:47;;;;;;;11.55;3.83;;;13.60;99.90;;;;;;4950190;28;20056;-87
2022/08/02 00:39:13;;;;;;;13.20;3.90;;;13.70;99.90;;;;;;4966140;28;20662;-86
2022/08/02 00:41:51;;;;;;;12.15;4.00;;;13.70;99.90;;;;;;4934084;28;20051;-87
2022/08/02 00:44:18;;;;;;;9.82;3.50;;;13.70;99.90;;;;;;4948589;28;20039;-86
2022/08/02 00:46:44;;;;;;;12.70;3.65;;;13.60;99.90;;;;;;4949818;28;20051;-87
2022/08/02 00:49:11;;;;;;;12.68;3.45;;;13.60;99.90;;;;;;4947668;28;20039;-86
2022/08/02 00:51:37;;;;;;;9.52;3.22;;;13.60;99.90;;;;;;4967176;28;20075;-87
2022/08/02 00:54:03;;;;;;;10.15;3.42;;;13.60;99.90;;;;;;4947543;28;20329;-87
2022/08/02 00:56:29;;;;;;;10.10;3.10;;;13.60;99.90;;;;;;4966877;28;20062;-87
2022/08/02 00:58:55;;;;;;;10.13;3.10;;;13.60;99.90;;;;;;4963834;28;20456;-86
2022/08/02 01:01:37;;;;;;;8.63;3.00;;;13.50;99.90;;;;;;4948468;28;20045;-87
2022/08/02 01:04:04;;;;;;;8.70;2.90;;;13.60;99.90;;;;;;4951848;28;20092;-87
2022/08/02 01:06:32;;;;;;;8.00;2.88;;;13.50;99.90;;;;;;4934538;28;20054;-87
2022/08/02 01:08:59;;;;;;;11.27;3.75;;;13.50;99.90;;;;;;4948650;28;20506;-86
2022/08/02 01:11:25;;;;;;;11.07;3.60;;;13.50;99.90;;;;;;4934788;28;20102;-87
2022/08/02 01:13:50;;;;;;;11.10;3.60;;;13.40;99.90;;;;;;4948451;28;20555;-86
2022/08/02 01:16:22;;;;;;;12.15;3.83;;;13.40;99.90;;;;;;4950635;28;20041;-87
2022/08/02 01:18:54;;;;;;;13.10;4.15;;;13.40;99.90;;;;;;4962963;28;20496;-87
2022/08/02 01:21:32;;;;;;;12.38;3.55;;;13.40;99.90;;;;;;4949347;28;20042;-86
2022/08/02 01:24:17;;;;;;;10.60;3.50;;;13.40;99.90;;;;;;4966531;28;20054;-87
2022/08/02 01:26:51;;;;;;;9.48;3.28;;;13.30;99.90;;;;;;4948261;28;20082;-86
2022/08/02 01:29:30;;;;;;;11.77;3.83;;;13.30;99.90;;;;;;4961302;28;20508;-87
2022/08/02 01:32:06;;;;;;;12.05;4.10;;;13.30;99.90;;;;;;4966034;28;20122;-87
2022/08/02 01:34:59;;;;;;;9.65;3.92;;;13.20;99.90;;;;;;4948758;28;20057;-87
2022/08/02 01:37:32;;;;;;;11.00;3.60;;;13.20;99.90;;;;;;4948797;28;20527;-86
2022/08/02 01:40:05;;;;;;;10.70;3.58;;;14.10;99.90;;;;;;4949106;28;20035;-87
2022/08/02 01:42:32;;;;;;;10.98;3.80;;;13.10;99.90;;;;;;4964764;28;20034;-86
2022/08/02 01:44:59;;;;;;;14.85;4.32;;;13.10;99.90;;;;;;4964031;28;20092;-87
2022/08/02 01:47:31;;;;;;;12.93;4.18;;;13.10;99.90;;;;;;4950084;28;20043;-87
2022/08/02 01:49:59;;;;;;;12.52;4.53;;;13.00;99.90;;;;;;4966630;28;20077;-87
2022/08/02 01:52:29;;;;;;;11.25;3.80;;;12.90;99.90;;;;;;4936892;28;20097;-87
2022/08/02 01:55:17;;;;;;;10.38;3.95;;;12.90;99.90;;;;;;4966259;28;20059;-86
2022/08/02 01:57:49;;;;;;;10.45;4.10;;;12.90;99.90;;;;;;4968076;28;20090;-87
2022/08/02 02:00:18;;;;;;;15.00;4.13;;;12.90;99.90;;;;;;4949635;28;20046;-87
2022/08/02 02:02:46;;;;;;;11.15;4.53;;;12.90;99.90;;;;;;4968993;28;20051;-86
2022/08/02 02:05:21;;;;;;;11.85;4.65;;;12.90;99.90;;;;;;4968936;28;20046;-87
2022/08/02 02:07:51;;;;;;;12.77;4.70;;;12.90;99.90;;;;;;4968600;28;20069;-87
2022/08/02 02:10:23;;;;;;;11.90;4.40;;;12.90;99.90;;;;;;4950846;28;20093;-87
2022/08/02 02:12:50;;;;;;;12.15;4.35;;;12.80;99.90;;;;;;4968638;28;20488;-87
2022/08/02 02:15:16;;;;;;;10.50;4.50;;;12.80;99.90;;;;;;4937341;28;20195;-87
2022/08/02 02:17:46;;;;;;;13.98;4.57;;;12.80;99.90;;;;;;4936460;28;20535;-87
2022/08/02 02:20:15;;;;;;;11.32;4.18;;;12.80;99.90;;;;;;4952581;28;20046;-86
2022/08/02 02:22:42;;;;;;;12.55;4.03;;;12.80;99.90;;;;;;4947522;28;20407;-86
2022/08/02 02:25:09;;;;;;;13.80;4.00;;;12.80;99.90;;;;;;4964807;28;20555;-86
2022/08/02 02:27:36;;;;;;;10.80;4.25;;;12.80;99.90;;;;;;4949445;28;20181;-87
2022/08/02 02:30:04;;;;;;;11.35;3.92;;;12.90;99.90;;;;;;4937188;28;20101;-86
2022/08/02 02:32:31;;;;;;;10.30;3.95;;;12.90;99.90;;;;;;4949258;28;20074;-86
2022/08/02 02:34:58;;;;;;;11.07;3.60;;;12.90;99.90;;;;;;4952077;28;20041;-87
2022/08/02 02:37:26;;;;;;;9.30;3.55;;;12.90;99.90;;;;;;4934916;28;20381;-86
2022/08/02 02:39:53;;;;;;;10.38;3.53;;;12.90;99.90;;;;;;4953239;28;20046;-86
2022/08/02 02:42:25;;;;;;;11.98;4.22;;;12.90;99.90;;;;;;4948960;28;20117;-86
2022/08/02 02:44:51;;;;;;;12.68;3.83;;;12.90;99.90;;;;;;4967953;28;20061;-86
2022/08/02 02:47:18;;;;;;;10.48;4.13;;;12.90;99.90;;;;;;4933308;28;20404;-86
2022/08/02 02:49:46;;;;;;;10.80;3.88;;;12.80;99.90;;;;;;4969721;28;20027;-87
2022/08/02 02:52:15;;;;;;;12.30;3.95;;;12.80;99.90;;;;;;4934499;28;20109;-86
2022/08/02 02:54:43;;;;;;;12.55;4.20;;;12.80;99.90;;;;;;4968099;28;20122;-87
2022/08/02 02:57:10;;;;;;;9.43;3.60;;;12.80;99.90;;;;;;4950281;28;20453;-86
2022/08/02 02:59:37;;;;;;;8.95;3.72;;;12.80;99.90;;;;;;4952407;28;20050;-87
2022/08/02 03:02:05;;;;;;;9.80;3.63;;;12.80;99.90;;;;;;4948419;28;20093;-87
2022/08/02 03:04:31;;;;;;;12.75;3.92;;;12.80;99.90;;;;;;4965235;28;20119;-87
2022/08/02 03:06:58;;;;;;;10.57;3.60;;;12.80;99.90;;;;;;4950625;28;20043;-87
2022/08/02 03:09:24;;;;;;;12.00;4.32;;;12.80;99.90;;;;;;4967675;28;20043;-87
2022/08/02 03:11:51;;;;;;;12.40;3.85;;;12.80;99.90;;;;;;4933611;28;20496;-86
2022/08/02 03:14:17;;;;;;;12.48;4.68;;;12.80;99.90;;;;;;4950661;28;20632;-87
2022/08/02 03:16:45;;;;;;;10.90;3.92;;;12.80;99.90;;;;;;4935797;28;20039;-87
2022/08/02 03:19:11;;;;;;;11.32;4.10;;;12.70;99.90;;;;;;4965697;28;20263;-87
2022/08/02 03:21:37;;;;;;;12.75;4.20;;;12.90;99.90;;;;;;4949962;28;20045;-88
2022/08/02 03:24:03;;;;;;;12.52;4.20;;;12.70;99.90;;;;;;4949003;28;20484;-87
2022/08/02 03:26:29;;;;;;;9.32;3.50;;;12.80;99.90;;;;;;4967850;28;20174;-86
2022/08/02 03:28:55;;;;;;;15.20;4.43;;;12.80;99.90;;;;;;4933183;28;20075;-86
2022/08/02 03:31:20;;;;;;;10.05;4.00;;;12.80;99.90;;;;;;4935629;28;20034;-87
2022/08/02 03:33:46;;;;;;;12.68;4.45;;;12.80;99.90;;;;;;4935955;28;20035;-87
2022/08/02 03:36:15;;;;;;;11.32;4.28;;;12.80;99.90;;;;;;4967363;28;20030;-88
2022/08/02 03:38:42;;;;;;;14.50;4.40;;;12.80;99.90;;;;;;4953013;28;20047;-86
2022/08/02 03:41:10;;;;;;;12.57;4.75;;;12.80;99.90;;;;;;4951773;28;20034;-87
2022/08/02 03:43:37;;;;;;;11.85;4.65;;;12.80;99.90;;;;;;4953090;28;20403;-89
2022/08/02 03:46:04;;;;;;;13.77;4.30;;;12.80;99.90;;;;;;4966862;28;20061;-87
2022/08/02 03:48:31;;;;;;;14.68;4.00;;;12.80;99.90;;;;;;4952612;28;20049;-87
2022/08/02 03:50:57;;;;;;;9.57;4.18;;;12.80;99.90;;;;;;4950993;28;20061;-86
2022/08/02 03:53:24;;;;;;;13.65;4.47;;;12.80;99.90;;;;;;4952218;28;20039;-86
2022/08/02 03:55:50;;;;;;;10.00;4.03;;;12.80;99.90;;;;;;4950269;28;20045;-87
2022/08/02 03:58:20;;;;;;;11.48;4.05;;;12.80;99.90;;;;;;4952676;28;20035;-87
2022/08/02 04:00:47;;;;;;;13.80;3.97;;;13.00;99.90;;;;;;4951616;28;20047;-87
2022/08/02 04:03:13;;;;;;;10.65;4.18;;;12.80;99.90;;;;;;4969967;28;20114;-86
2022/08/02 04:05:39;;;;;;;13.07;4.35;;;12.80;99.90;;;;;;4954509;28;20038;-87
2022/08/02 04:08:05;;;;;;;11.45;4.03;;;12.90;99.90;;;;;;4954165;28;20050;-87
2022/08/02 04:10:31;;;;;;;11.88;3.78;;;12.90;99.90;;;;;;4955080;28;20513;-88
2022/08/02 04:12:57;;;;;;;11.85;3.85;;;12.90;99.90;;;;;;4947040;28;20070;-87
2022/08/02 04:15:23;;;;;;;13.48;4.75;;;12.90;99.90;;;;;;4963978;28;20039;-87
2022/08/02 04:17:55;;;;;;;12.00;4.82;;;13.00;99.90;;;;;;4931829;28;20178;-88
2022/08/02 04:20:26;;;;;;;8.95;3.72;;;12.90;99.90;;;;;;4950667;28;20043;-86
2022/08/02 04:23:06;;;;;;;12.95;4.13;;;12.90;99.90;;;;;;4948877;28;20452;-85
2022/08/02 04:25:34;;;;;;;11.93;4.25;;;12.90;99.90;;;;;;4950205;28;20042;-88
2022/08/02 04:28:01;;;;;;;10.25;3.72;;;12.90;99.90;;;;;;4946246;28;20062;-87
2022/08/02 04:30:29;;;;;;;10.95;4.10;;;13.00;99.90;;;;;;4950498;28;20077;-87
2022/08/02 04:32:55;;;;;;;10.25;4.03;;;13.00;99.90;;;;;;4962815;28;20043;-87
2022/08/02 04:35:21;;;;;;;13.20;4.47;;;13.00;99.90;;;;;;4934381;28;20069;-87
2022/08/02 04:37:47;;;;;;;12.93;4.82;;;13.00;99.90;;;;;;4965971;28;20477;-87
2022/08/02 04:40:14;;;;;;;11.65;4.38;;;13.00;99.90;;;;;;4934544;28;20138;-87
2022/08/02 04:42:40;;;;;;;12.02;4.13;;;13.10;99.90;;;;;;4963604;28;20074;-88
2022/08/02 04:45:07;;;;;;;12.93;4.30;;;13.10;99.90;;;;;;4944908;28;20046;-87
2022/08/02 04:47:34;;;;;;;11.77;4.55;;;13.10;99.90;;;;;;4947690;28;20086;-87
2022/08/02 04:50:00;;;;;;;13.10;4.38;;;13.10;99.90;;;;;;4950140;28;20424;-87
2022/08/02 04:52:25;;;;;;;10.45;3.92;;;13.20;99.90;;;;;;4965146;28;20144;-86
2022/08/02 04:54:52;;;;;;;13.27;4.53;;;13.20;99.90;;;;;;4963363;28;20058;-87
2022/08/02 05:00:08;;;;;;;11.40;4.30;;;13.30;99.90;;;;;;4951671;28;20069;-87
2022/08/02 05:02:35;;;;;;;12.90;4.80;;;13.40;99.90;;;;;;4965784;28;20050;-86
2022/08/02 05:05:01;;;;;;;12.48;4.35;;;13.50;99.90;;;;;;4947737;28;20400;-88
2022/08/02 05:07:26;;;;;;;12.13;4.55;;;13.30;99.90;;;;;;4928181;28;20070;-87
2022/08/02 05:09:52;;;;;;;11.95;4.38;;;13.60;99.90;;;;;;4928972;28;20051;-87
2022/08/02 05:12:20;;;;;;;13.57;4.70;;;13.30;99.90;;;;;;4963492;28;20042;-87
2022/08/02 05:14:47;;;;;;;12.10;4.40;;;13.70;99.90;;;;;;4933723;28;20081;-88
2022/08/02 05:17:13;;;;;;;13.65;4.68;;;13.80;99.90;;;;;;4933808;28;20046;-88
2022/08/02 05:19:39;;;;;;;13.93;4.63;;;13.80;99.90;;;;;;4934774;28;20070;-88
2022/08/02 05:22:05;;;;;;;14.93;4.50;;;13.90;99.90;;;;;;4933754;28;20094;-87
2022/08/02 05:24:30;;;;;;;14.32;4.45;;;14.00;99.90;;;;;;4956157;28;20051;-88
2022/08/02 05:26:56;;;;;;;12.13;4.70;;;14.10;99.90;;;;;;4938979;28;20543;-87
2022/08/02 05:29:22;;;;;;;11.05;4.10;;;14.20;99.90;;;;;;4954181;28;20054;-88
2022/08/02 05:31:48;;;;;;;12.30;4.50;;;14.30;99.90;;;;;;4960331;28;20118;-87
2022/08/02 05:34:14;;;;;;;13.82;4.43;;;14.40;99.90;;;;;;4968817;28;20046;-87
2022/08/02 05:36:41;;;;;;;15.02;4.60;;;14.50;99.90;;;;;;4953385;28;20190;-87
2022/08/02 05:39:06;;;;;;;11.10;3.95;;;14.50;99.90;;;;;;4950056;28;20035;-87
2022/08/02 05:41:32;;;;;;;11.15;4.38;;;14.60;99.90;;;;;;4939786;28;20507;-86
2022/08/02 05:43:58;;;;;;;11.38;4.50;;;14.70;99.90;;;;;;4949597;28;20039;-86
2022/08/02 05:46:23;;;;;;;12.00;4.38;;;14.80;99.90;;;;;;4963527;28;20039;-86
2022/08/02 05:48:49;;;;;;;13.38;4.20;;;14.80;99.90;;;;;;4931343;28;20173;-86
2022/08/02 05:51:22;;;;;;;13.27;4.57;;;14.90;99.90;;;;;;4956434;28;20045;-86
2022/08/02 05:54:17;;;;;;;11.73;4.25;;;15.00;99.90;;;;;;4970455;28;20054;-87
2022/08/02 05:56:57;;;;;;;13.18;4.20;;;15.10;99.90;;;;;;4970910;28;20054;-86
2022/08/02 05:59:26;;;;;;;10.85;4.07;;;15.20;99.90;;;;;;4971216;28;20150;-87
2022/08/02 06:01:56;;;;;;;12.27;4.28;;;15.30;99.90;;;;;;4992098;28;20496;-87
2022/08/02 06:04:33;;;;;;;12.07;4.40;;;15.40;99.90;;;;;;4975003;28;20611;-87
2022/08/02 06:07:05;;;;;;;12.90;4.15;;;15.40;99.90;;;;;;4955184;28;20850;-86
2022/08/02 06:09:32;;;;;;;13.48;4.28;;;15.50;99.90;;;;;;4971955;28;20129;-87
2022/08/02 06:11:59;;;;;;;10.20;4.03;;;15.50;99.90;;;;;;4964912;28;20101;-86
2022/08/02 06:14:26;;;;;;;11.75;3.97;;;15.60;99.90;;;;;;4930148;28;20077;-86
2022/08/02 06:16:52;;;;;;;11.95;3.97;;;15.70;99.90;;;;;;4970861;28;20053;-87
2022/08/02 06:19:19;;;;;;;13.57;4.15;;;15.80;99.90;;;;;;4967328;28;20069;-87
2022/08/02 06:21:47;;;;;;;12.20;3.75;;;15.90;99.90;;;;;;4961048;28;20042;-87
2022/08/02 06:24:17;;;;;;;10.90;3.53;;;15.70;99.90;;;;;;4976139;28;20050;-87
2022/08/02 06:26:43;;;;;;;9.75;3.75;;;16.10;99.90;;;;;;4943933;28;20078;-87
2022/08/02 06:29:11;;;;;;;11.93;3.58;;;16.30;99.90;;;;;;4955084;28;20082;-86
2022/08/02 06:31:39;;;;;;;11.05;3.35;;;16.40;99.90;;;;;;4955599;28;20110;-86
2022/08/02 06:34:05;;;;;;;12.45;4.10;;;16.60;99.90;;;;;;4999398;28;20047;-87
2022/08/02 06:36:41;;;;;;;12.02;3.50;;;16.70;99.90;;;;;;4991079;28;20042;-87
2022/08/02 06:39:18;;;;;;;13.50;3.53;;;16.80;99.90;;;;;;5003907;28;20043;-87
2022/08/02 06:41:45;;;;;;;10.93;3.33;;;16.90;99.90;;;;;;4956161;28;20039;-87
2022/08/02 06:44:11;;;;;;;8.55;3.05;;;17.00;99.90;;;;;;4940256;28;20304;-87
2022/08/02 06:46:37;;;;;;;12.30;3.08;;;17.10;99.90;;;;;;4938713;28;20039;-86
2022/08/02 06:49:03;;;;;;;9.25;2.83;;;17.10;99.90;;;;;;4939945;28;20555;-87
2022/08/02 06:51:30;;;;;;;10.55;3.33;;;17.30;99.90;;;;;;4956100;28;20395;-87
2022/08/02 06:53:55;;;;;;;11.68;2.90;;;17.30;99.90;;;;;;4939780;28;20094;-87
2022/08/02 06:56:21;;;;;;;10.50;2.95;;;17.40;99.90;;;;;;4970564;28;20039;-86
2022/08/02 06:58:47;;;;;;;10.73;2.70;;;17.50;99.90;;;;;;4971369;28;20547;-87
2022/08/02 07:01:12;;;;;;;8.90;2.60;;;17.60;99.90;;;;;;4938269;28;20047;-88
2022/08/02 07:03:39;;;;;;;7.55;2.50;;;17.70;99.90;;;;;;4955369;28;20039;-87
2022/08/02 07:06:09;;;;;;;9.68;2.72;;;17.80;99.90;;;;;;4954929;28;20043;-87
2022/08/02 07:08:37;;;;;;;9.18;2.60;;;17.90;99.90;;;;;;4954771;28;20039;-87
2022/08/02 07:11:09;;;;;;;10.82;2.60;;;18.10;99.90;;;;;;4971534;28;20043;-87
2022/08/02 07:13:35;;;;;;;9.95;2.83;;;18.20;99.90;;;;;;4955149;28;20122;-88
2022/08/02 07:16:03;;;;;;;9.82;2.60;;;18.30;99.90;;;;;;4955593;28;20070;-87
2022/08/02 07:18:29;;;;;;;8.30;2.20;;;18.40;99.90;;;;;;4953917;28;20042;-87
2022/08/02 07:20:54;;;;;;;10.05;3.10;;;18.50;99.90;;;;;;4954728;28;20109;-87
2022/08/02 07:23:20;;;;;;;8.73;2.33;;;18.60;99.90;;;;;;4939228;28;20125;-87
2022/08/02 07:25:47;;;;;;;7.30;2.38;;;18.60;99.90;;;;;;4939399;28;20094;-88
2022/08/02 07:28:16;;;;;;;6.78;2.30;;;18.60;99.90;;;;;;4956349;28;20054;-87
2022/08/02 07:30:42;;;;;;;9.43;2.38;;;18.60;99.90;;;;;;4939507;28;20050;-87
2022/08/02 07:33:08;;;;;;;9.02;2.67;;;18.60;99.90;;;;;;4970225;28;20085;-87
2022/08/02 07:35:34;;;;;;;9.20;2.50;;;18.70;99.90;;;;;;4955049;28;20078;-88
2022/08/02 07:38:00;;;;;;;9.70;2.85;;;18.90;99.90;;;;;;4953513;28;20046;-88
2022/08/02 07:40:27;;;;;;;9.52;2.17;;;19.00;99.90;;;;;;4970884;28;20101;-87
2022/08/02 07:42:54;;;;;;;7.93;2.30;;;19.10;99.90;;;;;;4955011;28;20082;-87
2022/08/02 07:45:21;;;;;;;7.03;2.00;;;19.20;99.90;;;;;;4953189;28;20102;-87
2022/08/02 07:47:48;;;;;;;5.97;2.00;;;19.30;99.90;;;;;;4939043;28;20122;-87
2022/08/02 07:50:15;;;;;;;8.52;2.30;;;19.40;99.90;;;;;;4968747;28;20090;-87
2022/08/02 07:52:42;;;;;;;7.68;2.15;;;19.50;99.90;;;;;;4970964;28;20504;-88
2022/08/02 07:55:09;;;;;;;8.70;2.20;;;19.60;99.90;;;;;;4954712;28;20528;-88
2022/08/02 07:57:35;;;;;;;8.60;2.30;;;19.70;99.90;;;;;;4970732;28;20106;-88
2022/08/02 08:00:02;;;;;;;6.90;1.80;;;19.80;99.90;;;;;;4968698;28;20039;-88
2022/08/02 08:02:27;;;;;;;7.20;2.00;;;19.90;99.90;;;;;;4938576;28;20122;-88
2022/08/02 08:04:53;;;;;;;4.95;1.63;;;20.00;99.90;;;;;;4954296;28;20134;-88
2022/08/02 08:07:19;;;;;;;10.32;2.28;;;20.10;99.90;;;;;;4938688;28;20043;-88
2022/08/02 08:09:46;;;;;;;10.18;2.20;;;20.10;99.90;;;;;;4952970;28;20500;-88
2022/08/02 08:12:12;;;;;;;8.25;1.90;;;20.20;99.90;;;;;;4970348;28;20046;-88
2022/08/02 08:14:39;;;;;;;7.63;1.80;;;20.30;99.90;;;;;;4954405;28;20066;-87
2022/08/02 08:17:05;;;;;;;7.53;1.85;;;20.40;99.90;;;;;;4954634;28;20361;-88
2022/08/02 08:19:31;;;;;;;7.50;2.10;;;20.40;99.90;;;;;;4954366;28;20042;-88
2022/08/02 08:22:00;;;;;;;7.72;2.10;;;20.50;99.90;;;;;;4952385;28;20035;-88
2022/08/02 08:24:26;;;;;;;8.35;1.90;;;20.60;99.90;;;;;;4954084;28;20404;-88
2022/08/02 08:26:53;;;;;;;7.65;2.22;;;20.70;99.90;;;;;;4940048;28;20051;-88
2022/08/02 08:29:19;;;;;;;4.82;1.60;;;20.80;99.90;;;;;;4956396;28;20053;-88
2022/08/02 08:31:44;;;;;;;6.53;1.85;;;20.90;99.90;;;;;;4955640;28;20046;-88
2022/08/02 08:34:10;;;;;;;8.65;1.90;;;21.00;99.90;;;;;;4947716;28;20412;-88
2022/08/02 08:36:36;;;;;;;7.90;1.80;;;21.10;99.90;;;;;;4961247;28;20078;-88
2022/08/02 08:39:03;;;;;;;3.95;1.48;;;21.20;99.90;;;;;;4938499;28;20035;-88
2022/08/02 08:41:29;;;;;;;6.32;1.60;;;21.20;99.90;;;;;;4967836;28;20058;-89
2022/08/02 08:43:55;;;;;;;4.50;1.70;;;21.20;99.90;;;;;;4938033;28;20046;-87
2022/08/02 08:46:27;;;;;;;4.60;1.63;;;21.30;99.90;;;;;;4937931;28;20097;-88
2022/08/02 08:48:59;;;;;;;4.80;1.98;;;21.30;99.90;;;;;;4970167;28;20045;-88
2022/08/02 08:51:29;;;;;;;3.35;1.50;;;21.40;99.90;;;;;;4970306;28;20074;-88
2022/08/02 08:53:57;;;;;;;11.32;1.95;;;21.50;99.90;;;;;;4967996;28;20381;-88
2022/08/02 08:56:32;;;;;;;6.15;1.70;;;21.50;99.90;;;;;;4968926;28;20505;-88
2022/08/02 08:58:59;;;;;;;6.20;1.50;;;21.50;99.90;;;;;;4953991;28;20034;-89
2022/08/02 09:01:25;;;;;;;5.10;1.60;;;21.50;99.90;;;;;;4938038;28;20050;-88
2022/08/02 09:03:50;;;;;;;3.78;1.35;;;21.60;99.90;;;;;;4952241;28;20051;-87
2022/08/02 09:06:16;;;;;;;4.07;1.58;;;21.70;99.90;;;;;;4969797;28;20125;-88
2022/08/02 09:08:42;;;;;;;4.25;1.27;;;21.70;99.90;;;;;;4937576;28;20039;-88
2022/08/02 09:11:16;;;;;;;5.07;1.58;;;21.80;99.90;;;;;;4953594;28;20039;-88
2022/08/02 09:14:00;;;;;;;2.53;1.10;;;21.90;99.90;;;;;;4951790;28;20039;-89
2022/08/02 09:16:40;;;;;;;5.05;1.45;;;22.00;99.90;;;;;;4970034;28;20046;-87
2022/08/02 09:19:23;;;;;;;4.60;1.60;;;22.10;99.90;;;;;;4969703;28;20109;-89
2022/08/02 09:22:02;;;;;;;4.75;1.38;;;22.20;99.90;;;;;;4954087;28;20034;-89
2022/08/02 09:24:28;;;;;;;4.18;1.45;;;22.30;99.90;;;;;;4968071;28;20132;-89
2022/08/02 09:26:54;;;;;;;5.72;1.55;;;22.40;99.90;;;;;;4953224;28;20097;-87
2022/08/02 09:29:25;;;;;;;3.97;1.40;;;22.40;99.90;;;;;;4953241;28;20050;-88
2022/08/02 09:31:51;;;;;;;4.28;1.38;;;22.60;99.90;;;;;;4953869;28;20397;-88
2022/08/02 09:34:17;;;;;;;5.43;1.50;;;22.70;99.90;;;;;;4951932;28;20098;-88
2022/08/02 09:36:45;;;;;;;5.75;1.70;;;22.90;99.90;;;;;;4936593;28;20507;-88
2022/08/02 09:39:14;;;;;;;3.72;1.50;;;23.00;99.90;;;;;;4952939;28;20047;-87
2022/08/02 09:41:42;;;;;;;4.68;1.50;;;23.10;99.90;;;;;;4953447;28;20074;-89
2022/08/02 09:44:10;;;;;;;4.20;1.50;;;23.10;99.90;;;;;;4936934;28;20047;-88
2022/08/02 09:46:41;;;;;;;5.00;1.58;;;23.20;99.90;;;;;;4952251;28;20118;-87
2022/08/02 09:49:12;;;;;;;4.22;1.60;;;23.30;99.90;;;;;;4968891;28;20054;-88
2022/08/02 09:51:47;;;;;;;5.88;1.65;;;23.40;99.90;;;;;;4953789;28;20042;-88
2022/08/02 09:54:25;;;;;;;4.55;1.60;;;23.50;99.90;;;;;;4953253;28;20049;-88
2022/08/02 09:56:56;;;;;;;6.88;2.10;;;23.60;99.90;;;;;;4942518;28;20127;-89
2022/08/02 09:59:23;;;;;;;5.55;1.90;;;23.50;99.90;;;;;;4966224;28;20074;-88
2022/08/02 10:01:49;;;;;;;3.75;1.50;;;23.50;99.90;;;;;;4953412;28;20102;-87
2022/08/02 10:04:19;;;;;;;7.03;1.50;;;23.50;99.90;;;;;;4952939;28;20496;-87
2022/08/02 10:06:45;;;;;;;5.88;1.70;;;23.50;99.90;;;;;;4951455;28;20050;-88
2022/08/02 10:09:12;;;;;;;4.57;1.60;;;23.50;99.90;;;;;;4939588;28;20042;-87
2022/08/02 10:11:38;;;;;;;5.07;1.70;;;23.60;99.90;;;;;;4956968;28;20035;-88
2022/08/02 10:14:07;;;;;;;4.53;1.60;;;23.70;99.90;;;;;;4938824;28;20093;-88
2022/08/02 10:16:34;;;;;;;4.47;1.60;;;23.80;99.90;;;;;;4988514;28;20035;-88
2022/08/02 10:19:03;;;;;;;5.70;1.60;;;24.00;99.90;;;;;;4972905;28;20047;-88
2022/08/02 10:21:29;;;;;;;4.68;1.67;;;24.10;99.90;;;;;;4955204;28;20035;-89
2022/08/02 10:24:07;;;;;;;7.85;1.80;;;24.10;99.90;;;;;;4955766;28;20116;-89
2022/08/02 10:26:34;;;;;;;7.10;2.00;;;24.10;99.90;;;;;;4972858;28;20118;-89
2022/08/02 10:29:00;;;;;;;6.53;1.95;;;24.10;99.90;;;;;;4939359;28;20104;-89
2022/08/02 10:31:42;;;;;;;8.95;2.53;;;24.30;99.90;;;;;;4978257;28;20050;-88
2022/08/02 10:34:14;;;;;;;8.30;2.30;;;24.40;99.90;;;;;;4995357;28;21972;-87
2022/08/02 10:36:40;;;;;;;5.43;1.98;;;24.70;99.90;;;;;;4955765;28;20038;-88
2022/08/02 10:39:06;;;;;;;8.48;2.40;;;24.70;99.90;;;;;;4971357;28;20053;-89
2022/08/02 10:41:58;;;;;;;7.65;2.20;;;24.90;99.90;;;;;;4972620;28;20465;-88
2022/08/02 10:44:29;;;;;;;7.32;1.92;;;25.00;99.90;;;;;;4969017;28;20053;-88
2022/08/02 10:47:14;;;;;;;8.27;1.98;;;25.20;99.90;;;;;;4955380;28;20068;-89
2022/08/02 10:49:58;;;;;;;7.47;2.20;;;25.20;99.90;;;;;;4972440;28;20081;-89
2022/08/02 10:52:24;;;;;;;6.40;2.30;;;25.20;99.90;;;;;;4955962;28;20074;-87
2022/08/02 10:55:00;;;;;;;7.43;2.20;;;25.20;99.90;;;;;;4954318;28;20074;-88
2022/08/02 10:57:28;;;;;;;9.27;2.50;;;25.20;99.90;;;;;;4954354;28;20130;-89
2022/08/02 11:00:20;;;;;;;9.63;2.70;;;25.20;99.90;;;;;;4971945;28;20508;-88
2022/08/02 11:02:47;;;;;;;8.77;2.35;;;25.20;99.90;;;;;;4956078;28;20159;-87
2022/08/02 11:05:18;;;;;;;8.73;2.80;;;25.20;99.90;;;;;;4954265;28;20052;-89
2022/08/02 11:07:48;;;;;;;6.95;2.65;;;25.30;99.90;;;;;;4953997;28;20039;-88
2022/08/02 11:10:31;;;;;;;9.07;2.60;;;25.40;99.90;;;;;;4971523;28;20047;-88
2022/08/02 11:13:16;;;;;;;9.82;2.60;;;25.70;99.90;;;;;;4955424;28;20042;-87
2022/08/02 11:16:01;;;;;;;5.75;2.10;;;25.70;99.90;;;;;;4954467;28;20027;-88
2022/08/02 11:18:56;;;;;;;8.93;2.83;;;25.90;99.90;;;;;;4969755;28;20046;-87
2022/08/02 11:21:30;;;;;;;7.82;2.60;;;25.90;99.90;;;;;;4945979;28;20105;-88
2022/08/02 11:24:28;;;;;;;8.98;2.60;;;25.90;99.90;;;;;;4955517;28;20498;-88
2022/08/02 11:26:54;;;;;;;6.93;2.35;;;25.80;99.90;;;;;;4969433;28;20408;-85
2022/08/02 11:29:21;;;;;;;6.82;2.25;;;25.70;99.90;;;;;;4970666;28;20051;-88
2022/08/02 11:31:47;;;;;;;7.10;2.20;;;25.60;99.90;;;;;;4955164;28;20126;-87
2022/08/02 11:34:15;;;;;;;7.68;2.30;;;25.50;99.90;;;;;;4954266;28;20049;-88
2022/08/02 11:36:49;;;;;;;7.78;2.33;;;25.50;99.90;;;;;;4953535;28;20412;-88
2022/08/02 11:39:19;;;;;;;8.02;2.42;;;25.50;99.90;;;;;;4953331;28;20043;-89
2022/08/02 11:41:50;;;;;;;7.53;2.55;;;25.50;99.90;;;;;;4971394;28;20081;-88
2022/08/02 11:44:16;;;;;;;8.07;2.60;;;25.50;99.90;;;;;;4955391;28;20527;-88
2022/08/02 11:46:42;;;;;;;7.32;2.40;;;25.50;99.90;;;;;;4971340;28;20043;-88
2022/08/02 11:49:17;;;;;;;8.02;2.60;;;25.50;99.90;;;;;;4969919;28;20039;-87
2022/08/02 11:52:05;;;;;;;7.50;2.40;;;25.60;99.90;;;;;;4954243;28;20042;-87
2022/08/02 11:54:35;;;;;;;9.25;2.35;;;25.60;99.90;;;;;;4955113;28;20473;-88
2022/08/02 11:57:27;;;;;;;6.93;2.50;;;25.60;99.90;;;;;;4954829;28;20380;-87
2022/08/02 11:59:55;;;;;;;9.15;2.90;;;25.60;99.90;;;;;;4980196;28;20046;-88
2022/08/02 12:02:31;;;;;;;7.30;2.50;;;25.60;99.90;;;;;;4953623;28;20134;-89
2022/08/02 12:05:00;;;;;;;7.68;2.60;;;25.70;99.90;;;;;;4955021;28;20456;-87
2022/08/02 12:07:33;;;;;;;6.65;2.30;;;25.80;99.90;;;;;;4953569;28;20404;-86
2022/08/02 12:10:08;;;;;;;7.57;2.58;;;25.90;99.90;;;;;;4954609;28;20047;-88
2022/08/02 12:12:58;;;;;;;7.18;2.38;;;25.90;99.90;;;;;;4954979;28;20485;-88
2022/08/02 12:15:44;;;;;;;6.80;2.40;;;26.00;99.90;;;;;;4954655;28;20038;-87
2022/08/02 12:21:01;;;;;;;6.85;2.17;;;26.00;99.90;;;;;;4969708;28;20423;-87
2022/08/02 12:23:28;;;;;;;6.05;2.20;;;25.90;99.90;;;;;;4938696;28;20069;-88
2022/08/02 12:26:08;;;;;;;6.50;2.10;;;25.80;99.90;;;;;;4954659;28;20408;-87
2022/08/02 12:28:35;;;;;;;7.22;2.20;;;25.50;99.90;;;;;;4937989;28;20183;-88
2022/08/02 12:31:01;;;;;;;9.05;2.50;;;25.50;99.90;;;;;;4938622;28;20038;-88
2022/08/02 12:33:43;;;;;;;5.88;2.15;;;25.50;99.90;;;;;;4955904;28;20519;-88
2022/08/02 12:36:20;;;;;;;6.88;2.20;;;25.40;99.90;;;;;;4964792;28;20034;-87
2022/08/02 12:38:53;;;;;;;6.97;2.35;;;25.40;99.90;;;;;;4953469;28;20039;-85
2022/08/02 12:41:19;;;;;;;6.60;2.40;;;25.50;99.90;;;;;;4955099;28;20035;-88
2022/08/02 12:43:45;;;;;;;7.03;2.30;;;25.50;99.90;;;;;;4954250;28;20101;-89
2022/08/02 12:46:16;;;;;;;8.95;2.47;;;25.50;99.90;;;;;;4954703;28;20050;-88
2022/08/02 12:48:42;;;;;;;7.38;2.30;;;25.50;99.90;;;;;;4936835;28;20419;-87
2022/08/02 12:51:43;;;;;;;6.00;2.50;;;25.40;99.90;;;;;;4953209;28;20050;-87
2022/08/02 12:54:39;;;;;;;6.97;2.53;;;25.30;99.90;;;;;;4932161;28;20039;-88
2022/08/02 12:57:12;;;;;;;8.23;2.75;;;25.30;99.90;;;;;;4965296;28;20524;-88
2022/08/02 12:59:41;;;;;;;9.55;3.10;;;25.10;99.90;;;;;;4949029;28;20496;-88